Time;durP1;ratioP1;P1;durP2;ratioP2;P2;SDS_P1;SDS_P2;PMS_P1;PMS_P2;Temp;Humidity;BMP_temperature;BMP_pressure;BME280_temperature;BME280_humidity;BME280_pressure;Samples;Min_cycle;Max_cycle;Signal;HPM_P1;HPM_P2
2023/07/13 00:02:07;;;;;;;1.08;0.20;;;;;;;;;;4976498;28;20442;-77
2023/07/13 00:04:33;;;;;;;0.20;0.10;;;;;;;;;;4983443;28;20077;-78
2023/07/13 00:06:59;;;;;;;0.20;0.00;;;;;;;;;;4981437;28;20458;-79
2023/07/13 00:09:26;;;;;;;0.20;0.10;;;;;;;;;;4979459;28;20049;-78
2023/07/13 00:11:54;;;;;;;0.20;0.00;;;;;;;;;;4982123;28;20088;-77
2023/07/13 00:14:20;;;;;;;0.20;0.10;;;;;;;;;;4986601;28;20038;-78
2023/07/13 00:16:46;;;;;;;0.20;0.10;;;;;;;;;;4987957;28;20039;-78
2023/07/13 00:19:13;;;;;;;0.20;0.17;;;;;;;;;;4976322;28;20049;-78
2023/07/13 00:21:42;;;;;;;0.20;0.10;;;;;;;;;;4987998;28;20044;-77
2023/07/13 00:24:12;;;;;;;0.20;0.10;;;;;;;;;;4988607;28;20045;-79
2023/07/13 00:26:39;;;;;;;0.20;0.10;;;;;;;;;;4987244;28;20117;-78
2023/07/13 00:29:08;;;;;;;0.20;0.10;;;;;;;;;;4982937;28;20061;-79
2023/07/13 00:31:35;;;;;;;0.20;0.17;;;;;;;;;;4984246;28;20042;-78
2023/07/13 00:34:02;;;;;;;0.40;0.40;;;;;;;;;;4979283;28;20494;-80
2023/07/13 00:36:28;;;;;;;0.20;0.10;;;;;;;;;;4979540;28;20043;-82
2023/07/13 00:38:54;;;;;;;0.20;0.10;;;;;;;;;;4985051;28;20131;-80
2023/07/13 00:41:20;;;;;;;0.20;0.10;;;;;;;;;;4988849;28;20041;-80
2023/07/13 00:43:46;;;;;;;0.20;0.10;;;;;;;;;;4975309;28;20117;-78
2023/07/13 00:46:17;;;;;;;0.20;0.10;;;;;;;;;;4986855;28;20085;-79
2023/07/13 00:48:44;;;;;;;0.20;0.10;;;;;;;;;;4983263;28;20715;-80
2023/07/13 00:51:10;;;;;;;0.20;0.10;;;;;;;;;;4986823;28;20038;-80
2023/07/13 00:53:37;;;;;;;0.20;0.03;;;;;;;;;;4987558;28;20097;-79
2023/07/13 00:56:03;;;;;;;0.20;0.10;;;;;;;;;;4984231;28;20077;-80
2023/07/13 00:58:29;;;;;;;0.20;0.00;;;;;;;;;;4990992;28;20835;-79
2023/07/13 01:00:56;;;;;;;0.20;0.20;;;;;;;;;;4995994;28;20049;-79
2023/07/13 01:03:22;;;;;;;0.20;0.10;;;;;;;;;;4985955;28;20042;-81
2023/07/13 01:05:49;;;;;;;0.20;0.10;;;;;;;;;;4999380;28;20049;-79
2023/07/13 01:08:15;;;;;;;0.20;0.05;;;;;;;;;;4986955;28;20042;-79
2023/07/13 01:10:42;;;;;;;0.20;0.10;;;;;;;;;;4987888;28;20038;-80
2023/07/13 01:13:09;;;;;;;0.25;0.15;;;;;;;;;;5002397;28;20521;-78
2023/07/13 01:15:43;;;;;;;0.20;0.13;;;;;;;;;;4988801;28;20046;-81
2023/07/13 01:18:20;;;;;;;0.20;0.10;;;;;;;;;;4996179;28;20093;-80
2023/07/13 01:20:57;;;;;;;0.20;0.10;;;;;;;;;;4996963;28;20041;-81
2023/07/13 01:23:24;;;;;;;0.20;0.10;;;;;;;;;;4986815;28;20042;-81
2023/07/13 01:25:50;;;;;;;0.20;0.10;;;;;;;;;;4986819;28;20062;-79
2023/07/13 01:28:17;;;;;;;0.20;0.05;;;;;;;;;;4989628;28;20536;-80
2023/07/13 01:30:45;;;;;;;0.20;0.10;;;;;;;;;;4990697;28;20555;-81
2023/07/13 01:33:12;;;;;;;0.20;0.10;;;;;;;;;;4949158;28;20116;-81
2023/07/13 01:35:38;;;;;;;0.20;0.10;;;;;;;;;;4982478;28;20046;-79
2023/07/13 01:38:05;;;;;;;0.20;0.10;;;;;;;;;;4986446;28;20069;-80
2023/07/13 01:40:32;;;;;;;0.20;0.10;;;;;;;;;;4980332;28;20521;-80
2023/07/13 01:42:58;;;;;;;0.20;0.00;;;;;;;;;;4974057;28;20095;-78
2023/07/13 01:45:24;;;;;;;0.20;0.10;;;;;;;;;;4994297;28;20089;-82
2023/07/13 01:47:51;;;;;;;0.20;0.03;;;;;;;;;;4985570;28;20044;-80
2023/07/13 01:50:17;;;;;;;0.95;0.22;;;;;;;;;;4973329;28;20121;-80
2023/07/13 01:52:43;;;;;;;0.20;0.10;;;;;;;;;;4972120;28;20062;-81
2023/07/13 01:55:09;;;;;;;0.20;0.00;;;;;;;;;;4978702;28;20169;-81
2023/07/13 01:57:35;;;;;;;0.20;0.10;;;;;;;;;;4977166;28;20045;-79
2023/07/13 02:00:04;;;;;;;0.20;0.10;;;;;;;;;;4989823;28;20496;-80
2023/07/13 02:02:31;;;;;;;0.20;0.00;;;;;;;;;;4987490;28;20037;-79
2023/07/13 02:04:57;;;;;;;1.42;1.10;;;;;;;;;;4982121;28;20057;-79
2023/07/13 02:07:23;;;;;;;1.20;1.10;;;;;;;;;;4992356;28;20530;-80
2023/07/13 02:09:49;;;;;;;0.20;0.10;;;;;;;;;;4976134;28;20506;-79
2023/07/13 02:12:15;;;;;;;0.20;0.05;;;;;;;;;;4988325;28;20041;-80
2023/07/13 02:14:41;;;;;;;0.35;0.20;;;;;;;;;;4991998;28;20054;-81
2023/07/13 02:17:07;;;;;;;0.20;0.13;;;;;;;;;;4987723;28;20053;-80
2023/07/13 02:19:33;;;;;;;0.20;0.10;;;;;;;;;;4981349;28;20042;-80
2023/07/13 02:21:59;;;;;;;0.20;0.10;;;;;;;;;;4991127;28;20046;-81
2023/07/13 02:24:26;;;;;;;0.20;0.00;;;;;;;;;;4986559;28;20038;-80
2023/07/13 02:26:52;;;;;;;0.20;0.10;;;;;;;;;;4984559;28;20034;-81
2023/07/13 02:29:18;;;;;;;0.20;0.03;;;;;;;;;;4981710;28;20034;-81
2023/07/13 02:31:44;;;;;;;0.25;0.10;;;;;;;;;;4972630;28;20053;-80
2023/07/13 02:34:10;;;;;;;0.20;0.10;;;;;;;;;;4977160;28;20604;-80
2023/07/13 02:36:36;;;;;;;0.30;0.30;;;;;;;;;;4982889;28;20451;-80
2023/07/13 02:39:03;;;;;;;0.20;0.10;;;;;;;;;;4982231;28;20037;-81
2023/07/13 02:41:29;;;;;;;0.20;0.10;;;;;;;;;;4977410;28;20077;-80
2023/07/13 02:44:03;;;;;;;0.20;0.10;;;;;;;;;;4975706;28;20038;-80
2023/07/13 02:46:33;;;;;;;0.20;0.10;;;;;;;;;;4982284;28;20708;-79
2023/07/13 02:48:59;;;;;;;0.20;0.10;;;;;;;;;;4979947;28;20072;-82
2023/07/13 02:51:26;;;;;;;0.20;0.10;;;;;;;;;;4975807;28;20033;-80
2023/07/13 02:53:52;;;;;;;0.20;0.10;;;;;;;;;;4973685;28;20042;-79
2023/07/13 02:56:18;;;;;;;0.20;0.00;;;;;;;;;;4981027;28;20046;-79
2023/07/13 02:58:45;;;;;;;0.30;0.10;;;;;;;;;;4980186;28;20650;-80
2023/07/13 03:01:11;;;;;;;0.20;0.10;;;;;;;;;;4951731;28;20046;-82
2023/07/13 03:03:38;;;;;;;0.20;0.00;;;;;;;;;;4969043;28;20057;-79
2023/07/13 03:06:05;;;;;;;0.20;0.10;;;;;;;;;;4968007;28;20499;-80
2023/07/13 03:08:32;;;;;;;0.20;0.10;;;;;;;;;;4980349;28;20145;-82
2023/07/13 03:11:02;;;;;;;0.20;0.10;;;;;;;;;;4977530;28;20030;-82
2023/07/13 03:13:28;;;;;;;0.20;0.10;;;;;;;;;;4993396;28;20140;-80
2023/07/13 03:15:54;;;;;;;0.20;0.10;;;;;;;;;;4978629;28;20388;-82
2023/07/13 03:18:20;;;;;;;0.20;0.10;;;;;;;;;;4976241;28;20038;-81
2023/07/13 03:20:46;;;;;;;0.20;0.10;;;;;;;;;;4991605;28;20093;-81
2023/07/13 03:23:12;;;;;;;0.20;0.10;;;;;;;;;;4979828;28;20038;-81
2023/07/13 03:25:38;;;;;;;0.20;0.10;;;;;;;;;;4969523;28;20034;-78
2023/07/13 03:28:05;;;;;;;0.20;0.10;;;;;;;;;;4979358;28;20041;-80
2023/07/13 03:30:31;;;;;;;0.20;0.10;;;;;;;;;;4973281;28;20415;-79
2023/07/13 03:32:57;;;;;;;0.20;0.10;;;;;;;;;;4977591;28;20130;-80
2023/07/13 03:35:23;;;;;;;0.20;0.10;;;;;;;;;;4959727;28;20050;-79
2023/07/13 03:37:51;;;;;;;0.20;0.10;;;;;;;;;;4980052;28;20503;-81
2023/07/13 03:40:17;;;;;;;0.20;0.20;;;;;;;;;;4974731;28;20100;-80
2023/07/13 03:42:43;;;;;;;0.20;0.10;;;;;;;;;;4975232;28;20041;-79
2023/07/13 03:45:09;;;;;;;0.20;0.10;;;;;;;;;;4984364;28;20094;-80
2023/07/13 03:47:35;;;;;;;0.20;0.00;;;;;;;;;;4953515;28;20043;-81
2023/07/13 03:50:01;;;;;;;0.20;0.10;;;;;;;;;;4966420;28;20240;-81
2023/07/13 03:52:28;;;;;;;0.20;0.00;;;;;;;;;;4974148;28;20070;-80
2023/07/13 03:54:54;;;;;;;0.20;0.00;;;;;;;;;;4980547;28;20046;-81
2023/07/13 03:57:20;;;;;;;1.27;1.00;;;;;;;;;;4986544;28;20068;-79
2023/07/13 03:59:46;;;;;;;0.20;0.10;;;;;;;;;;4985508;28;20084;-81
2023/07/13 04:02:12;;;;;;;0.20;0.10;;;;;;;;;;4978289;28;20046;-79
2023/07/13 04:04:40;;;;;;;0.20;0.10;;;;;;;;;;4983782;28;20042;-79
2023/07/13 04:07:08;;;;;;;0.20;0.10;;;;;;;;;;4991217;28;20034;-79
2023/07/13 04:09:34;;;;;;;0.28;0.28;;;;;;;;;;4989760;28;20042;-81
2023/07/13 04:12:00;;;;;;;0.20;0.10;;;;;;;;;;4984550;28;20042;-80
2023/07/13 04:14:26;;;;;;;0.20;0.10;;;;;;;;;;4988462;28;20527;-80
2023/07/13 04:16:54;;;;;;;0.20;0.10;;;;;;;;;;4981084;28;20041;-79
2023/07/13 04:19:20;;;;;;;0.20;0.10;;;;;;;;;;4984057;28;20102;-81
2023/07/13 04:21:46;;;;;;;0.20;0.00;;;;;;;;;;4970897;28;20093;-81
2023/07/13 04:24:12;;;;;;;0.20;0.13;;;;;;;;;;4986486;28;20859;-82
2023/07/13 04:26:39;;;;;;;0.47;0.25;;;;;;;;;;4971681;28;20038;-81
2023/07/13 04:29:06;;;;;;;0.20;0.10;;;;;;;;;;4989498;28;20038;-81
2023/07/13 04:31:32;;;;;;;0.20;0.10;;;;;;;;;;4968194;28;20030;-82
2023/07/13 04:33:58;;;;;;;0.20;0.13;;;;;;;;;;4986313;28;20169;-80
2023/07/13 04:36:26;;;;;;;0.45;0.28;;;;;;;;;;4959904;28;20558;-80
2023/07/13 04:38:56;;;;;;;0.20;0.00;;;;;;;;;;4973829;28;20468;-81
2023/07/13 04:41:22;;;;;;;0.20;0.10;;;;;;;;;;4982127;28;20073;-81
2023/07/13 04:43:48;;;;;;;0.20;0.05;;;;;;;;;;4958607;28;20035;-82
2023/07/13 04:46:17;;;;;;;0.20;0.10;;;;;;;;;;4965928;28;20045;-83
2023/07/13 04:48:43;;;;;;;0.20;0.10;;;;;;;;;;4987957;28;20042;-82
2023/07/13 04:51:09;;;;;;;1.98;0.60;;;;;;;;;;4980845;28;20044;-83
2023/07/13 04:53:36;;;;;;;0.20;0.10;;;;;;;;;;4992776;28;20041;-81
2023/07/13 04:56:03;;;;;;;1.10;0.63;;;;;;;;;;4998261;28;20038;-80
2023/07/13 04:58:29;;;;;;;0.20;0.10;;;;;;;;;;4983756;28;20042;-81
2023/07/13 05:01:00;;;;;;;0.20;0.10;;;;;;;;;;4985103;28;20072;-82
2023/07/13 05:03:26;;;;;;;0.20;0.00;;;;;;;;;;4983899;28;20506;-82
2023/07/13 05:05:59;;;;;;;0.90;0.85;;;;;;;;;;4986040;28;20507;-80
2023/07/13 05:08:25;;;;;;;0.35;0.17;;;;;;;;;;4995861;28;20569;-82
2023/07/13 05:10:52;;;;;;;0.65;0.55;;;;;;;;;;4994471;28;20172;-82
2023/07/13 05:13:18;;;;;;;0.20;0.10;;;;;;;;;;4985181;28;20088;-83
2023/07/13 05:15:44;;;;;;;0.25;0.10;;;;;;;;;;4986276;28;20048;-80
2023/07/13 05:18:10;;;;;;;0.20;0.10;;;;;;;;;;4983296;28;20073;-82
2023/07/13 05:20:36;;;;;;;0.20;0.10;;;;;;;;;;4981178;28;20555;-83
2023/07/13 05:23:03;;;;;;;0.20;0.00;;;;;;;;;;4998497;28;20042;-83
2023/07/13 05:25:29;;;;;;;0.20;0.00;;;;;;;;;;4984682;28;20451;-82
2023/07/13 05:27:55;;;;;;;0.20;0.10;;;;;;;;;;4986987;28;20136;-80
2023/07/13 05:30:21;;;;;;;0.22;0.10;;;;;;;;;;4985600;28;20054;-81
2023/07/13 05:32:47;;;;;;;0.20;0.00;;;;;;;;;;4987674;28;20070;-82
2023/07/13 05:35:13;;;;;;;0.20;0.10;;;;;;;;;;4976278;28;20038;-81
2023/07/13 05:37:39;;;;;;;0.45;0.40;;;;;;;;;;4983153;28;20052;-82
2023/07/13 05:40:05;;;;;;;0.20;0.10;;;;;;;;;;4986536;28;20049;-80
2023/07/13 05:42:32;;;;;;;0.20;0.00;;;;;;;;;;4981601;28;20046;-81
2023/07/13 05:44:58;;;;;;;0.82;0.75;;;;;;;;;;4982333;28;20618;-83
2023/07/13 05:47:24;;;;;;;0.20;0.00;;;;;;;;;;4978825;28;20097;-81
2023/07/13 05:49:50;;;;;;;0.20;0.10;;;;;;;;;;4983993;28;20037;-81
2023/07/13 05:52:16;;;;;;;0.20;0.00;;;;;;;;;;4983639;28;20052;-82
2023/07/13 05:54:42;;;;;;;0.20;0.10;;;;;;;;;;4977450;28;20050;-83
2023/07/13 05:57:08;;;;;;;0.20;0.10;;;;;;;;;;4977653;28;20038;-81
2023/07/13 05:59:34;;;;;;;0.20;0.10;;;;;;;;;;4984609;28;20050;-81
2023/07/13 06:02:00;;;;;;;0.20;0.10;;;;;;;;;;4976435;28;20126;-83
2023/07/13 06:04:26;;;;;;;0.20;0.10;;;;;;;;;;5020138;22;20587;-83
2023/07/13 06:06:53;;;;;;;0.20;0.10;;;;;;;;;;5011104;28;20056;-83
2023/07/13 06:09:19;;;;;;;0.20;0.10;;;;;;;;;;5004939;28;20430;-83
2023/07/13 06:11:45;;;;;;;0.20;0.10;;;;;;;;;;5014035;28;20735;-83
2023/07/13 06:14:11;;;;;;;0.20;0.10;;;;;;;;;;4996027;28;20038;-81
2023/07/13 06:16:37;;;;;;;0.20;0.10;;;;;;;;;;4997665;28;20045;-84
2023/07/13 06:19:03;;;;;;;0.20;0.10;;;;;;;;;;4992779;28;20044;-83
2023/07/13 06:21:29;;;;;;;0.22;0.15;;;;;;;;;;5010156;28;20142;-84
2023/07/13 06:23:56;;;;;;;0.20;0.10;;;;;;;;;;5020572;28;20502;-82
2023/07/13 06:26:22;;;;;;;0.20;0.10;;;;;;;;;;4997315;28;20029;-85
2023/07/13 06:28:48;;;;;;;0.20;0.10;;;;;;;;;;4996821;28;20292;-84
2023/07/13 06:31:15;;;;;;;0.20;0.10;;;;;;;;;;5008911;28;20045;-85
2023/07/13 06:33:41;;;;;;;0.20;0.10;;;;;;;;;;4998062;28;20490;-82
2023/07/13 06:36:07;;;;;;;0.20;0.20;;;;;;;;;;5007450;28;20061;-87
2023/07/13 06:38:33;;;;;;;0.20;0.08;;;;;;;;;;5000520;28;20042;-82
2023/07/13 06:41:00;;;;;;;0.20;0.10;;;;;;;;;;4997456;28;20053;-83
2023/07/13 06:43:26;;;;;;;0.20;0.00;;;;;;;;;;5008229;28;20067;-82
2023/07/13 06:45:55;;;;;;;0.20;0.10;;;;;;;;;;5008071;28;20034;-85
2023/07/13 06:48:21;;;;;;;0.20;0.10;;;;;;;;;;4990706;28;20042;-85
2023/07/13 06:50:49;;;;;;;0.20;0.10;;;;;;;;;;4992443;28;20046;-82
2023/07/13 06:53:15;;;;;;;1.30;0.65;;;;;;;;;;4994474;28;20041;-83
2023/07/13 06:55:44;;;;;;;0.20;0.10;;;;;;;;;;4992249;28;20037;-85
2023/07/13 06:58:10;;;;;;;0.20;0.10;;;;;;;;;;4986155;28;20593;-81
2023/07/13 07:00:36;;;;;;;0.20;0.10;;;;;;;;;;5006742;28;20613;-84
2023/07/13 07:03:03;;;;;;;0.20;0.10;;;;;;;;;;4993277;28;20717;-83
2023/07/13 07:05:29;;;;;;;0.35;0.22;;;;;;;;;;5001467;28;20048;-84
2023/07/13 07:07:56;;;;;;;0.20;0.20;;;;;;;;;;5008003;28;20048;-85
2023/07/13 07:10:22;;;;;;;1.05;0.20;;;;;;;;;;4994459;28;20037;-83
2023/07/13 07:12:48;;;;;;;0.20;0.10;;;;;;;;;;5006575;28;20247;-83
2023/07/13 07:15:14;;;;;;;0.20;0.10;;;;;;;;;;5008822;28;20418;-85
2023/07/13 07:17:40;;;;;;;0.20;0.10;;;;;;;;;;5009617;28;20713;-83
2023/07/13 07:20:07;;;;;;;0.20;0.10;;;;;;;;;;5009299;28;20038;-85
2023/07/13 07:22:33;;;;;;;0.20;0.10;;;;;;;;;;5007741;28;20065;-87
2023/07/13 07:24:59;;;;;;;0.20;0.10;;;;;;;;;;5009054;28;20049;-82
2023/07/13 07:27:25;;;;;;;0.20;0.10;;;;;;;;;;4990274;28;20056;-85
2023/07/13 07:29:51;;;;;;;0.20;0.10;;;;;;;;;;4989906;28;20095;-82
2023/07/13 07:32:20;;;;;;;0.20;0.10;;;;;;;;;;4992874;28;20037;-86
2023/07/13 07:34:46;;;;;;;0.20;0.10;;;;;;;;;;4987562;28;20738;-82
2023/07/13 07:37:13;;;;;;;0.20;0.10;;;;;;;;;;5012073;28;20485;-83
2023/07/13 07:39:39;;;;;;;0.20;0.20;;;;;;;;;;5006061;28;20064;-86
2023/07/13 07:42:06;;;;;;;0.20;0.10;;;;;;;;;;4991476;28;20537;-84
2023/07/13 07:44:32;;;;;;;0.20;0.10;;;;;;;;;;5010289;28;20132;-84
2023/07/13 07:46:59;;;;;;;0.20;0.10;;;;;;;;;;4993470;28;20041;-85
2023/07/13 07:49:25;;;;;;;0.20;0.10;;;;;;;;;;4998831;28;20068;-86
2023/07/13 07:51:51;;;;;;;0.20;0.10;;;;;;;;;;5010389;28;20193;-85
2023/07/13 07:54:17;;;;;;;0.20;0.10;;;;;;;;;;4997142;28;20048;-85
2023/07/13 07:56:43;;;;;;;2.88;0.45;;;;;;;;;;4998793;28;20045;-85
2023/07/13 07:59:09;;;;;;;0.45;0.45;;;;;;;;;;5007856;28;20115;-85
2023/07/13 08:01:36;;;;;;;0.20;0.10;;;;;;;;;;4991542;28;20045;-85
2023/07/13 08:04:02;;;;;;;0.20;0.10;;;;;;;;;;4994021;28;20076;-84
2023/07/13 08:06:28;;;;;;;0.20;0.10;;;;;;;;;;5012924;28;20656;-86
2023/07/13 08:08:55;;;;;;;0.30;0.30;;;;;;;;;;5006543;28;20161;-83
2023/07/13 08:11:22;;;;;;;0.20;0.10;;;;;;;;;;4999061;28;20056;-84
2023/07/13 08:13:48;;;;;;;0.20;0.10;;;;;;;;;;5002077;28;20069;-82
2023/07/13 08:16:14;;;;;;;0.20;0.10;;;;;;;;;;5013773;28;20042;-81
2023/07/13 08:18:40;;;;;;;0.20;0.10;;;;;;;;;;5004473;28;20045;-82
2023/07/13 08:21:07;;;;;;;0.20;0.10;;;;;;;;;;5010268;28;20500;-83
2023/07/13 08:23:33;;;;;;;0.45;0.15;;;;;;;;;;4994333;28;20053;-83
2023/07/13 08:26:01;;;;;;;0.20;0.10;;;;;;;;;;4998141;28;20037;-80
2023/07/13 08:28:27;;;;;;;0.20;0.20;;;;;;;;;;4995581;28;20046;-85
2023/07/13 08:30:53;;;;;;;0.20;0.10;;;;;;;;;;4994707;28;20076;-79
2023/07/13 08:33:20;;;;;;;0.20;0.10;;;;;;;;;;5008562;28;20608;-82
2023/07/13 08:35:47;;;;;;;0.60;0.60;;;;;;;;;;5010771;28;20033;-83
2023/07/13 08:38:14;;;;;;;0.20;0.10;;;;;;;;;;4996414;28;20054;-84
2023/07/13 08:40:40;;;;;;;0.20;0.10;;;;;;;;;;4993336;28;20564;-82
2023/07/13 08:43:08;;;;;;;0.30;0.10;;;;;;;;;;4991451;28;20037;-86
2023/07/13 08:45:45;;;;;;;1.48;1.38;;;;;;;;;;5005312;28;20045;-85
2023/07/13 08:48:14;;;;;;;0.20;0.10;;;;;;;;;;4997504;28;20037;-85
2023/07/13 08:50:47;;;;;;;0.20;0.10;;;;;;;;;;5013680;28;20124;-84
2023/07/13 08:53:15;;;;;;;0.20;0.10;;;;;;;;;;4996896;28;20073;-84
2023/07/13 08:55:41;;;;;;;0.55;0.55;;;;;;;;;;5011066;28;20041;-85
2023/07/13 08:58:14;;;;;;;0.20;0.10;;;;;;;;;;5016836;28;20124;-83
2023/07/13 09:00:53;;;;;;;0.20;0.10;;;;;;;;;;5015842;28;20037;-83
2023/07/13 09:03:21;;;;;;;0.20;0.10;;;;;;;;;;4996214;28;20401;-81
2023/07/13 09:05:51;;;;;;;0.20;0.10;;;;;;;;;;4990855;28;20034;-79
2023/07/13 09:08:26;;;;;;;1.05;0.52;;;;;;;;;;4996169;28;20033;-80
2023/07/13 09:10:58;;;;;;;0.20;0.10;;;;;;;;;;5008854;28;20064;-82
2023/07/13 09:13:40;;;;;;;0.52;0.40;;;;;;;;;;4993813;28;20106;-81
2023/07/13 09:16:07;;;;;;;0.20;0.13;;;;;;;;;;4987055;28;20509;-83
2023/07/13 09:18:38;;;;;;;0.20;0.10;;;;;;;;;;5006647;28;20048;-80
2023/07/13 09:21:10;;;;;;;0.20;0.15;;;;;;;;;;5001510;28;20034;-80
2023/07/13 09:23:36;;;;;;;0.20;0.10;;;;;;;;;;5017848;28;20244;-81
2023/07/13 09:26:10;;;;;;;0.40;0.20;;;;;;;;;;5013227;28;20108;-82
2023/07/13 09:28:44;;;;;;;0.20;0.10;;;;;;;;;;5019182;28;20046;-81
2023/07/13 09:31:17;;;;;;;0.20;0.10;;;;;;;;;;5014886;28;20364;-79
2023/07/13 09:33:43;;;;;;;0.20;0.10;;;;;;;;;;5010794;28;20104;-82
2023/07/13 09:36:20;;;;;;;2.22;0.65;;;;;;;;;;4991870;28;20056;-83
2023/07/13 09:38:47;;;;;;;0.20;0.10;;;;;;;;;;5007289;28;20046;-84
2023/07/13 09:41:32;;;;;;;1.08;0.68;;;;;;;;;;4993378;28;20061;-83
2023/07/13 09:47:26;;;;;;;0.20;0.10;;;;;;;;;;4988675;28;20399;-85
2023/07/13 09:49:59;;;;;;;0.20;0.10;;;;;;;;;;5009992;28;20049;-85
2023/07/13 09:52:27;;;;;;;0.20;0.00;;;;;;;;;;5002672;28;20042;-84
2023/07/13 09:54:58;;;;;;;0.20;0.10;;;;;;;;;;4997779;28;20030;-82
2023/07/13 09:57:25;;;;;;;0.30;0.13;;;;;;;;;;5021701;28;20041;-83
2023/07/13 09:59:58;;;;;;;0.20;0.10;;;;;;;;;;5000814;28;20042;-81
2023/07/13 10:02:33;;;;;;;0.30;0.30;;;;;;;;;;4992803;28;20050;-81
2023/07/13 10:05:19;;;;;;;0.20;0.10;;;;;;;;;;4999960;28;20476;-84
2023/07/13 10:07:45;;;;;;;0.20;0.10;;;;;;;;;;4996784;28;20057;-83
2023/07/13 10:10:20;;;;;;;0.20;0.10;;;;;;;;;;5003305;28;20033;-81
2023/07/13 10:12:46;;;;;;;0.20;0.00;;;;;;;;;;5015019;28;20087;-82
2023/07/13 10:15:25;;;;;;;0.20;0.10;;;;;;;;;;4993000;28;20046;-82
2023/07/13 10:17:57;;;;;;;0.20;0.10;;;;;;;;;;5000905;28;20046;-82
2023/07/13 10:20:23;;;;;;;;;;;;;;;;;;5013526;28;20096;-80
2023/07/13 10:22:49;;;;;;;0.20;0.10;;;;;;;;;;5012887;28;20423;-82
2023/07/13 10:25:18;;;;;;;0.20;0.10;;;;;;;;;;4997106;28;20061;-82
2023/07/13 10:27:44;;;;;;;0.20;0.00;;;;;;;;;;4995900;28;20342;-82
2023/07/13 10:30:22;;;;;;;0.20;0.10;;;;;;;;;;4997036;28;20099;-81
2023/07/13 10:32:52;;;;;;;0.20;0.10;;;;;;;;;;5017023;28;20038;-82
2023/07/13 10:35:20;;;;;;;0.20;0.10;;;;;;;;;;5006098;28;20072;-83
2023/07/13 10:37:54;;;;;;;0.20;0.10;;;;;;;;;;5004887;28;20037;-80
2023/07/13 10:40:24;;;;;;;0.20;0.10;;;;;;;;;;5018124;28;20076;-79
2023/07/13 10:42:51;;;;;;;0.20;0.10;;;;;;;;;;5011063;28;20054;-84
2023/07/13 10:45:22;;;;;;;0.20;0.10;;;;;;;;;;5004422;28;20454;-81
2023/07/13 10:47:50;;;;;;;0.75;0.75;;;;;;;;;;5003131;28;20157;-81
2023/07/13 10:50:20;;;;;;;1.95;0.35;;;;;;;;;;5001731;28;20036;-83
2023/07/13 10:52:47;;;;;;;0.20;0.20;;;;;;;;;;5003170;28;20048;-83
2023/07/13 10:55:43;;;;;;;0.20;0.10;;;;;;;;;;5014485;28;20030;-82
2023/07/13 10:58:19;;;;;;;0.20;0.10;;;;;;;;;;4998417;28;20049;-82
2023/07/13 11:00:50;;;;;;;0.20;0.10;;;;;;;;;;5014861;28;20410;-85
2023/07/13 11:03:18;;;;;;;0.30;0.25;;;;;;;;;;5002155;28;20095;-82
2023/07/13 11:05:44;;;;;;;0.45;0.22;;;;;;;;;;5005364;28;20037;-84
2023/07/13 11:08:17;;;;;;;0.20;0.20;;;;;;;;;;5006635;28;20033;-83
2023/07/13 11:10:46;;;;;;;0.20;0.10;;;;;;;;;;5017358;28;20034;-81
2023/07/13 11:13:32;;;;;;;0.38;0.30;;;;;;;;;;5000807;28;20073;-82
2023/07/13 11:15:58;;;;;;;0.45;0.45;;;;;;;;;;5002901;28;20033;-82
2023/07/13 11:18:30;;;;;;;0.20;0.10;;;;;;;;;;5012290;28;20034;-84
2023/07/13 11:21:13;;;;;;;0.20;0.10;;;;;;;;;;4996009;28;21052;-82
2023/07/13 11:23:42;;;;;;;0.20;0.10;;;;;;;;;;5003084;28;20038;-85
2023/07/13 11:26:30;;;;;;;0.20;0.10;;;;;;;;;;4999844;28;20033;-87
2023/07/13 11:31:58;;;;;;;0.50;0.10;;;;;;;;;;4996977;28;20454;-86
2023/07/13 11:34:32;;;;;;;0.20;0.10;;;;;;;;;;5001237;28;20112;-87
2023/07/13 11:37:00;;;;;;;0.20;0.10;;;;;;;;;;4996687;28;20044;-85
2023/07/13 11:39:30;;;;;;;0.20;0.10;;;;;;;;;;4995223;28;20056;-84
2023/07/13 11:42:01;;;;;;;0.20;0.10;;;;;;;;;;4990688;28;20443;-87
2023/07/13 11:44:28;;;;;;;0.52;0.52;;;;;;;;;;5007590;28;20290;-83
2023/07/13 11:46:56;;;;;;;0.20;0.10;;;;;;;;;;5010179;28;20464;-83
2023/07/13 11:49:29;;;;;;;0.20;0.10;;;;;;;;;;4993986;28;20045;-85
2023/07/13 11:51:55;;;;;;;0.57;0.20;;;;;;;;;;4989873;28;20152;-82
2023/07/13 11:54:29;;;;;;;0.22;0.15;;;;;;;;;;5003646;28;20494;-86
2023/07/13 11:56:57;;;;;;;0.20;0.10;;;;;;;;;;5003172;28;20049;-84
2023/07/13 11:59:24;;;;;;;1.73;1.00;;;;;;;;;;5005443;28;20037;-84
2023/07/13 12:01:55;;;;;;;0.20;0.20;;;;;;;;;;5009285;28;20045;-90
2023/07/13 12:04:26;;;;;;;0.20;0.10;;;;;;;;;;5013036;28;20043;-83
2023/07/13 12:06:58;;;;;;;0.20;0.10;;;;;;;;;;5004917;28;20104;-84
2023/07/13 12:09:26;;;;;;;0.20;0.10;;;;;;;;;;5004590;28;20042;-85
2023/07/13 12:11:52;;;;;;;0.25;0.20;;;;;;;;;;5016258;23;20046;-81
2023/07/13 12:14:19;;;;;;;0.30;0.20;;;;;;;;;;5004706;28;20092;-80
2023/07/13 12:16:46;;;;;;;0.20;0.10;;;;;;;;;;5006459;28;20045;-81
2023/07/13 12:19:17;;;;;;;0.20;0.00;;;;;;;;;;5023451;28;20133;-81
2023/07/13 12:21:44;;;;;;;0.35;0.22;;;;;;;;;;5006406;28;20041;-83
2023/07/13 12:24:29;;;;;;;0.20;0.10;;;;;;;;;;5020093;28;20096;-83
2023/07/13 12:27:00;;;;;;;0.28;0.10;;;;;;;;;;5016659;28;20172;-80
2023/07/13 12:29:26;;;;;;;0.20;0.10;;;;;;;;;;5021006;28;20045;-81
2023/07/13 12:31:52;;;;;;;0.40;0.32;;;;;;;;;;4998139;28;20308;-80
2023/07/13 12:34:21;;;;;;;0.20;0.10;;;;;;;;;;5001665;28;20370;-82
2023/07/13 12:36:48;;;;;;;0.20;0.10;;;;;;;;;;5001140;28;20119;-81
2023/07/13 12:39:25;;;;;;;0.20;0.00;;;;;;;;;;5018777;28;21518;-82
2023/07/13 12:41:52;;;;;;;0.20;0.20;;;;;;;;;;4999737;28;20045;-82
2023/07/13 12:44:40;;;;;;;0.20;0.10;;;;;;;;;;5019687;28;20087;-81
2023/07/13 12:47:12;;;;;;;0.20;0.10;;;;;;;;;;5002138;28;20045;-79
2023/07/13 12:49:42;;;;;;;0.20;0.20;;;;;;;;;;5022276;28;20394;-81
2023/07/13 12:52:16;;;;;;;0.20;0.10;;;;;;;;;;5036790;28;20040;-84
2023/07/13 12:54:42;;;;;;;0.20;0.10;;;;;;;;;;5024049;28;20052;-83
2023/07/13 12:57:14;;;;;;;0.20;0.10;;;;;;;;;;5025388;28;20029;-81
2023/07/13 12:59:41;;;;;;;0.20;0.10;;;;;;;;;;5020972;28;20161;-79
2023/07/13 13:02:23;;;;;;;0.20;0.05;;;;;;;;;;5003340;28;20041;-84
2023/07/13 13:04:49;;;;;;;0.20;0.13;;;;;;;;;;4995189;28;20526;-81
2023/07/13 13:07:15;;;;;;;0.40;0.13;;;;;;;;;;5023650;28;20249;-80
2023/07/13 13:09:41;;;;;;;0.20;0.00;;;;;;;;;;5001395;28;20746;-81
2023/07/13 13:12:08;;;;;;;0.20;0.10;;;;;;;;;;5004929;28;20049;-80
2023/07/13 13:14:36;;;;;;;0.20;0.10;;;;;;;;;;5006196;28;20045;-80
2023/07/13 13:17:02;;;;;;;0.20;0.10;;;;;;;;;;5002257;28;20037;-81
2023/07/13 13:19:30;;;;;;;0.20;0.00;;;;;;;;;;5023662;28;20045;-84
2023/07/13 13:21:57;;;;;;;0.20;0.10;;;;;;;;;;4997180;28;20041;-81
2023/07/13 13:24:26;;;;;;;0.20;0.10;;;;;;;;;;5006679;28;20041;-79
2023/07/13 13:26:53;;;;;;;0.28;0.25;;;;;;;;;;5019271;28;20132;-80
2023/07/13 13:29:20;;;;;;;0.20;0.10;;;;;;;;;;5037513;28;20042;-80
2023/07/13 13:31:46;;;;;;;0.20;0.10;;;;;;;;;;5020786;28;20241;-81
2023/07/13 13:34:14;;;;;;;0.20;0.10;;;;;;;;;;5037419;28;20041;-83
2023/07/13 13:36:40;;;;;;;0.20;0.10;;;;;;;;;;5009357;28;20037;-80
2023/07/13 13:39:19;;;;;;;0.20;0.10;;;;;;;;;;5026033;28;20095;-82
2023/07/13 13:41:45;;;;;;;0.20;0.00;;;;;;;;;;5017858;28;20050;-83
2023/07/13 13:44:17;;;;;;;0.20;0.10;;;;;;;;;;5003927;28;20076;-82
2023/07/13 13:46:45;;;;;;;0.73;0.40;;;;;;;;;;4998627;28;20033;-83
2023/07/13 13:49:14;;;;;;;0.20;0.10;;;;;;;;;;5024605;28;20053;-81
2023/07/13 13:51:41;;;;;;;0.20;0.10;;;;;;;;;;5016824;28;20044;-80
2023/07/13 13:54:10;;;;;;;0.20;0.10;;;;;;;;;;5006598;28;20061;-82
2023/07/13 13:56:36;;;;;;;0.20;0.10;;;;;;;;;;5010987;28;20038;-81
2023/07/13 13:59:04;;;;;;;0.20;0.10;;;;;;;;;;5007435;28;20520;-80
2023/07/13 14:01:31;;;;;;;0.20;0.10;;;;;;;;;;5004894;28;20041;-83
2023/07/13 14:03:59;;;;;;;0.30;0.25;;;;;;;;;;5001561;28;20041;-83
2023/07/13 14:06:25;;;;;;;0.20;0.08;;;;;;;;;;5000227;28;20536;-81
2023/07/13 14:08:51;;;;;;;0.20;0.10;;;;;;;;;;5021115;28;20065;-80
2023/07/13 14:11:19;;;;;;;0.25;0.15;;;;;;;;;;5026718;28;20087;-83
2023/07/13 14:13:48;;;;;;;0.20;0.00;;;;;;;;;;5019509;28;20045;-81
2023/07/13 14:16:19;;;;;;;0.20;0.10;;;;;;;;;;4999683;28;20522;-81
2023/07/13 14:18:45;;;;;;;0.20;0.10;;;;;;;;;;4995414;28;20045;-81
2023/07/13 14:21:13;;;;;;;0.20;0.08;;;;;;;;;;5001177;28;20049;-82
2023/07/13 14:23:39;;;;;;;0.20;0.10;;;;;;;;;;5018499;28;20162;-82
2023/07/13 14:26:13;;;;;;;0.20;0.10;;;;;;;;;;5009159;28;20867;-83
2023/07/13 14:28:42;;;;;;;0.20;0.00;;;;;;;;;;5020580;28;20041;-85
2023/07/13 14:31:09;;;;;;;0.20;0.10;;;;;;;;;;5008806;28;20087;-82
2023/07/13 14:33:35;;;;;;;0.20;0.10;;;;;;;;;;5023234;28;20029;-82
2023/07/13 14:36:01;;;;;;;0.20;0.10;;;;;;;;;;5011586;28;20041;-79
2023/07/13 14:38:27;;;;;;;0.20;0.10;;;;;;;;;;5015623;28;20033;-84
2023/07/13 14:40:53;;;;;;;0.20;0.10;;;;;;;;;;5009173;28;20080;-80
2023/07/13 14:43:20;;;;;;;0.20;0.10;;;;;;;;;;5018151;28;20041;-80
2023/07/13 14:45:49;;;;;;;0.20;0.10;;;;;;;;;;5002346;28;20038;-82
2023/07/13 14:48:23;;;;;;;0.20;0.10;;;;;;;;;;5015034;28;20077;-86
2023/07/13 14:50:59;;;;;;;0.20;0.10;;;;;;;;;;5008233;28;20039;-81
2023/07/13 14:53:28;;;;;;;0.20;0.10;;;;;;;;;;5011195;28;20041;-85
2023/07/13 14:55:54;;;;;;;0.20;0.10;;;;;;;;;;5013082;28;20091;-81